createdAt,value
2018-08-03T00:06:17.533Z,13.47
2018-08-03T00:12:02.214Z,13.73
2018-08-03T00:14:35.023Z,12.97
2018-08-03T00:17:09.592Z,11.27
2018-08-03T00:19:40.151Z,12.20
2018-08-03T00:22:13.138Z,14.10
2018-08-03T00:24:45.058Z,12.73
2018-08-03T00:30:26.490Z,12.20
2018-08-03T00:32:57.003Z,12.60
2018-08-03T00:35:28.014Z,13.10
2018-08-03T00:37:58.446Z,14.97
2018-08-03T00:40:28.411Z,14.43
2018-08-03T00:42:58.930Z,13.10
2018-08-03T00:45:29.832Z,15.50
2018-08-03T00:48:00.098Z,13.13
2018-08-03T00:50:31.815Z,14.30
2018-08-03T00:53:03.258Z,13.27
2018-08-03T00:55:33.638Z,12.53
2018-08-03T00:58:04.326Z,13.03
2018-08-03T01:00:36.620Z,13.83
2018-08-03T01:03:43.996Z,12.70
2018-08-03T01:06:15.304Z,14.03
2018-08-03T01:08:45.945Z,14.50
2018-08-03T01:11:18.219Z,14.03
2018-08-03T01:13:48.235Z,13.73
2018-08-03T01:16:26.533Z,14.10
2018-08-03T01:19:26.459Z,13.03
2018-08-03T01:21:58.591Z,13.83
2018-08-03T01:24:29.161Z,13.00
2018-08-03T01:26:59.430Z,15.30
2018-08-03T01:29:33.563Z,14.87
2018-08-03T01:32:07.965Z,14.67
2018-08-03T01:34:42.761Z,16.30
2018-08-03T01:37:13.232Z,13.10
2018-08-03T01:39:44.061Z,13.27
2018-08-03T01:42:14.336Z,14.07
2018-08-03T01:44:45.097Z,13.60
2018-08-03T01:49:56.192Z,13.67
2018-08-03T01:52:26.488Z,13.80
2018-08-03T01:54:59.897Z,13.70
2018-08-03T01:57:31.224Z,14.53
2018-08-03T02:00:01.983Z,14.87
2018-08-03T02:02:32.262Z,13.77
2018-08-03T02:05:06.836Z,15.17
2018-08-03T02:07:37.647Z,15.47
2018-08-03T02:10:07.865Z,15.33
2018-08-03T02:12:38.499Z,14.47
2018-08-03T02:18:04.029Z,15.30
2018-08-03T02:20:34.273Z,15.23
2018-08-03T02:23:04.474Z,15.60
2018-08-03T02:25:35.624Z,16.47
2018-08-03T02:28:05.959Z,14.17
2018-08-03T02:30:36.593Z,15.33
2018-08-03T02:33:06.929Z,15.87
2018-08-03T02:35:37.120Z,16.07
2018-08-03T02:38:08.016Z,17.03
2018-08-03T02:40:38.191Z,14.20
2018-08-03T02:43:10.711Z,15.10
2018-08-03T02:45:40.967Z,15.70
2018-08-03T02:48:12.503Z,13.87
2018-08-03T02:50:43.795Z,14.77
2018-08-03T02:53:16.178Z,15.63
2018-08-03T02:55:46.492Z,14.77
2018-08-03T02:58:17.024Z,14.90
2018-08-03T03:00:47.109Z,15.93
2018-08-03T03:03:19.544Z,16.03
2018-08-03T03:05:49.840Z,15.87
2018-08-03T03:08:20.125Z,16.67
2018-08-03T03:10:50.192Z,15.20
2018-08-03T03:13:23.954Z,15.63
2018-08-03T03:15:54.053Z,18.93
2018-08-03T03:18:24.334Z,15.83
2018-08-03T03:20:55.149Z,15.50
2018-08-03T03:26:20.906Z,16.17
2018-08-03T03:31:44.850Z,14.80
2018-08-03T03:34:17.024Z,17.20
2018-08-03T03:36:47.472Z,16.73
2018-08-03T03:39:17.784Z,17.03
2018-08-03T03:41:47.891Z,16.83
2018-08-03T03:44:41.074Z,15.63
2018-08-03T03:47:12.705Z,16.57
2018-08-03T03:49:45.220Z,16.83
2018-08-03T03:52:23.290Z,18.03
2018-08-03T03:54:54.597Z,16.13
2018-08-03T03:57:25.709Z,16.67
2018-08-03T03:59:58.613Z,16.90
2018-08-03T04:02:28.953Z,15.77
2018-08-03T04:09:41.444Z,15.43
2018-08-03T04:12:11.620Z,15.53
2018-08-03T04:14:42.237Z,16.37
2018-08-03T04:17:12.682Z,16.10
2018-08-03T04:19:43.293Z,18.83
2018-08-03T04:22:21.302Z,16.83
2018-08-03T04:24:55.092Z,17.83
2018-08-03T04:27:40.766Z,15.63
2018-08-03T04:30:10.989Z,15.77
2018-08-03T04:32:41.137Z,16.30
2018-08-03T04:35:12.964Z,15.73
2018-08-03T04:37:44.058Z,16.63
2018-08-03T04:40:14.743Z,17.87
2018-08-03T04:42:45.184Z,16.07
2018-08-03T04:45:18.080Z,17.27
2018-08-03T04:47:48.930Z,16.77
2018-08-03T04:50:45.132Z,15.90
2018-08-03T04:53:21.813Z,15.50
2018-08-03T04:55:55.502Z,16.80
2018-08-03T04:58:30.084Z,16.10
2018-08-03T05:01:03.104Z,17.80
2018-08-03T05:03:42.896Z,16.10
2018-08-03T05:06:16.976Z,16.07
2018-08-03T05:08:50.111Z,15.70
2018-08-03T05:11:34.156Z,15.40
2018-08-03T05:14:45.233Z,15.80
2018-08-03T05:17:19.717Z,15.60
2018-08-03T05:19:52.406Z,15.87
2018-08-03T05:28:06.000Z,16.20
2018-08-03T05:30:49.259Z,17.30
2018-08-03T05:33:29.294Z,14.73
2018-08-03T05:36:04.180Z,14.63
2018-08-03T05:38:44.271Z,14.80
2018-08-03T05:41:20.316Z,15.67
2018-08-03T05:46:41.852Z,16.97
2018-08-03T05:49:14.095Z,15.20
2018-08-03T05:51:47.217Z,17.30
2018-08-03T05:54:17.668Z,14.87
2018-08-03T05:56:48.024Z,15.27
2018-08-03T05:59:20.204Z,16.00
2018-08-03T06:01:51.084Z,15.60
2018-08-03T06:04:22.085Z,16.33
2018-08-03T06:06:52.428Z,15.43
2018-08-03T06:09:22.420Z,15.10
2018-08-03T06:11:53.179Z,14.57
2018-08-03T06:14:24.810Z,15.27
2018-08-03T06:16:55.619Z,15.97
2018-08-03T06:19:43.290Z,23.03
2018-08-03T06:22:13.827Z,23.23
2018-08-03T06:24:43.924Z,20.33
2018-08-03T06:27:21.564Z,24.73
2018-08-03T06:29:52.775Z,23.63
2018-08-03T06:32:33.659Z,20.40
2018-08-03T06:35:05.133Z,19.17
2018-08-03T06:42:59.553Z,20.80
2018-08-03T06:45:31.075Z,21.77
2018-08-03T06:48:02.398Z,20.63
2018-08-03T06:50:41.105Z,21.03
2018-08-03T06:53:21.342Z,21.60
2018-08-03T06:55:55.930Z,23.87
2018-08-03T06:58:35.678Z,21.23
2018-08-03T07:01:19.720Z,20.20
2018-08-03T07:03:57.609Z,22.67
2018-08-03T07:06:35.369Z,20.27
2018-08-03T07:09:21.149Z,20.13
2018-08-03T07:12:02.902Z,19.67
2018-08-03T07:14:35.792Z,17.53
2018-08-03T07:17:17.044Z,22.03
2018-08-03T07:19:53.962Z,19.10
2018-08-03T07:22:29.421Z,17.10
2018-08-03T07:25:04.037Z,19.33
2018-08-03T07:27:45.613Z,21.00
2018-08-03T07:30:28.496Z,17.90
2018-08-03T07:35:50.911Z,19.07
2018-08-03T07:38:29.369Z,17.03
2018-08-03T07:43:52.701Z,17.50
2018-08-03T07:46:28.368Z,16.30
2018-08-03T07:49:07.568Z,21.20
2018-08-03T07:54:36.032Z,16.37
2018-08-03T07:59:56.494Z,15.47
2018-08-03T08:02:41.159Z,16.93
2018-08-03T08:05:16.368Z,13.13
2018-08-03T08:07:46.584Z,15.23
2018-08-03T08:10:42.250Z,14.60
2018-08-03T08:13:20.966Z,13.27
2018-08-03T08:16:07.968Z,16.37
2018-08-03T08:18:44.206Z,14.87
2018-08-03T08:21:15.396Z,16.57
2018-08-03T08:23:53.232Z,13.17
2018-08-03T08:26:33.221Z,13.13
2018-08-03T08:29:18.919Z,14.47
2018-08-03T08:41:38.569Z,12.53
2018-08-03T08:46:57.393Z,11.93
2018-08-03T08:55:44.408Z,12.67
2018-08-03T08:58:30.676Z,15.83
2018-08-03T09:01:15.167Z,12.27
2018-08-03T09:04:03.209Z,10.17
2018-08-03T09:06:57.531Z,16.77
2018-08-03T09:09:29.938Z,11.57
2018-08-03T09:12:02.933Z,10.87
2018-08-03T09:14:43.290Z,9.33
2018-08-03T09:20:27.524Z,10.00
2018-08-03T09:23:05.643Z,11.03
2018-08-03T09:34:38.996Z,9.97
2018-08-03T09:37:15.980Z,9.87
2018-08-03T09:45:58.369Z,12.40
2018-08-03T09:51:31.256Z,10.70
2018-08-03T09:54:01.726Z,11.97
2018-08-03T09:56:40.510Z,10.50
2018-08-03T09:59:31.376Z,9.97
2018-08-03T10:02:02.032Z,11.63
2018-08-03T10:04:42.304Z,18.10
2018-08-03T10:10:07.161Z,10.43
2018-08-03T10:12:41.409Z,10.00
2018-08-03T10:15:23.598Z,10.07
2018-08-03T10:20:56.508Z,10.83
2018-08-03T10:23:29.146Z,12.17
2018-08-03T10:25:59.664Z,11.20
2018-08-03T10:28:29.745Z,10.50
2018-08-03T10:31:00.506Z,11.00
2018-08-03T10:33:34.722Z,13.40
2018-08-03T10:36:14.528Z,10.93
2018-08-03T10:38:48.520Z,12.27
2018-08-03T10:41:24.014Z,11.47
2018-08-03T10:43:56.477Z,11.10
2018-08-03T10:46:26.496Z,11.03
2018-08-03T10:48:56.576Z,10.33
2018-08-03T10:51:44.236Z,10.63
2018-08-03T10:54:18.277Z,10.07
2018-08-03T10:56:58.005Z,11.80
2018-08-03T10:59:28.233Z,10.83
2018-08-03T11:01:59.026Z,10.97
2018-08-03T11:04:29.957Z,10.80
2018-08-03T11:07:00.686Z,10.40
2018-08-03T11:09:38.318Z,10.90
2018-08-03T11:12:20.786Z,11.07
2018-08-03T11:15:01.611Z,11.67
2018-08-03T11:20:27.331Z,10.20
2018-08-03T11:23:03.735Z,10.57
2018-08-03T11:25:41.869Z,11.33
2018-08-03T11:28:53.316Z,10.77
2018-08-03T11:31:35.876Z,9.93
2018-08-03T11:34:18.017Z,10.53
2018-08-03T11:36:48.662Z,11.00
2018-08-03T11:39:21.424Z,13.17
2018-08-03T11:41:51.505Z,9.43
2018-08-03T11:44:31.419Z,9.47
2018-08-03T11:47:18.587Z,9.90
2018-08-03T11:52:41.842Z,9.67
2018-08-03T11:55:13.409Z,9.10
2018-08-03T11:57:45.919Z,10.37
2018-08-03T12:09:57.715Z,9.93
2018-08-03T12:12:29.171Z,10.17
2018-08-03T12:15:01.218Z,8.13
2018-08-03T12:20:50.925Z,9.67
2018-08-03T12:23:33.291Z,8.53
2018-08-03T12:26:11.643Z,9.33
2018-08-03T12:28:53.536Z,9.30
2018-08-03T12:31:38.270Z,12.07
2018-08-03T12:34:16.570Z,8.90
2018-08-03T12:36:57.396Z,9.63
2018-08-03T12:39:27.336Z,8.80
2018-08-03T12:42:00.082Z,11.23
2018-08-03T12:44:30.693Z,9.43
2018-08-03T12:47:03.491Z,9.27
2018-08-03T12:49:34.322Z,8.93
2018-08-03T12:52:06.892Z,9.57
2018-08-03T12:54:45.742Z,8.70
2018-08-03T12:57:19.680Z,8.50
2018-08-03T12:59:51.483Z,8.47
2018-08-03T13:02:25.992Z,9.33
2018-08-03T13:05:00.011Z,9.37
2018-08-03T13:07:31.107Z,11.50
2018-08-03T13:10:02.936Z,8.87
2018-08-03T13:13:03.372Z,11.87
2018-08-03T13:15:36.122Z,7.90
2018-08-03T13:18:19.387Z,9.97
2018-08-03T13:20:52.865Z,8.30
2018-08-03T13:23:24.445Z,10.90
2018-08-03T13:28:59.020Z,11.60
2018-08-03T13:31:36.949Z,8.87
2018-08-03T13:34:17.804Z,8.93
2018-08-03T13:36:59.726Z,8.87
2018-08-03T13:39:44.473Z,10.37
2018-08-03T13:42:20.128Z,8.80
2018-08-03T13:44:57.794Z,10.10
2018-08-03T13:47:28.460Z,9.03
2018-08-03T13:50:08.145Z,9.50
2018-08-03T13:52:50.680Z,8.93
2018-08-03T13:55:28.975Z,8.70
2018-08-03T13:58:06.441Z,8.13
2018-08-03T14:03:52.189Z,8.13
2018-08-03T14:06:39.444Z,7.63
2018-08-03T14:09:30.339Z,7.83
2018-08-03T14:15:29.583Z,8.07
2018-08-03T14:18:02.211Z,7.73
2018-08-03T14:20:32.378Z,7.97
2018-08-03T14:23:16.393Z,8.00
2018-08-03T14:25:49.924Z,10.53
2018-08-03T14:28:23.420Z,8.03
2018-08-03T14:31:01.803Z,7.77
2018-08-03T14:33:42.781Z,24.43
2018-08-03T14:36:20.684Z,7.83
2018-08-03T14:39:13.360Z,7.83
2018-08-03T14:44:30.905Z,7.30
2018-08-03T14:53:02.980Z,8.30
2018-08-03T14:58:36.073Z,7.30
2018-08-03T15:04:27.862Z,7.67
2018-08-03T15:07:01.933Z,8.33
2018-08-03T15:18:35.090Z,7.93
2018-08-03T15:21:16.514Z,8.27
2018-08-03T15:24:04.735Z,8.30
2018-08-03T15:27:02.618Z,7.57
2018-08-03T15:41:12.766Z,8.83
2018-08-03T15:43:50.630Z,9.03
2018-08-03T15:49:37.230Z,9.23
2018-08-03T15:52:27.422Z,9.13
2018-08-03T15:57:48.064Z,8.93
2018-08-03T16:00:25.303Z,8.17
2018-08-03T16:08:54.198Z,8.27
2018-08-03T16:20:30.672Z,8.23
2018-08-03T16:23:24.764Z,8.10
2018-08-03T16:29:21.096Z,8.80
2018-08-03T16:43:52.305Z,9.67
2018-08-03T16:46:40.152Z,9.73
2018-08-03T16:49:28.184Z,9.37
2018-08-03T16:52:02.834Z,8.93
2018-08-03T16:54:37.462Z,8.97
2018-08-03T16:57:12.278Z,8.40
2018-08-03T16:59:42.828Z,8.20
2018-08-03T17:02:13.737Z,9.47
2018-08-03T17:04:45.717Z,8.87
2018-08-03T17:07:20.451Z,8.90
2018-08-03T17:09:50.454Z,12.30
2018-08-03T17:12:25.391Z,8.53
2018-08-03T17:14:58.224Z,8.73
2018-08-03T17:17:29.210Z,8.53
2018-08-03T17:19:59.740Z,8.03
2018-08-03T17:22:31.361Z,8.40
2018-08-03T17:25:01.519Z,8.40
2018-08-03T17:27:34.865Z,9.10
2018-08-03T17:30:05.954Z,10.23
2018-08-03T17:32:36.613Z,13.83
2018-08-03T17:35:06.533Z,15.43
2018-08-03T17:37:37.142Z,8.80
2018-08-03T17:40:07.733Z,10.40
2018-08-03T17:42:38.209Z,16.30
2018-08-03T17:45:08.285Z,11.53
2018-08-03T17:47:39.458Z,11.63
2018-08-03T17:50:09.486Z,10.10
2018-08-03T17:52:39.456Z,8.33
2018-08-03T17:55:09.411Z,9.67
2018-08-03T17:57:40.539Z,9.67
2018-08-03T18:00:10.539Z,14.17
2018-08-03T18:02:40.351Z,9.90
2018-08-03T18:05:10.440Z,8.53
2018-08-03T18:09:23.559Z,8.70
2018-08-03T18:11:53.580Z,9.10
2018-08-03T18:14:23.683Z,9.13
2018-08-03T18:16:54.616Z,9.63
2018-08-03T18:19:25.262Z,9.20
2018-08-03T18:21:55.392Z,10.93
2018-08-03T18:24:25.305Z,9.93
2018-08-03T18:26:57.387Z,10.20
2018-08-03T18:29:28.291Z,8.57
2018-08-03T18:32:01.503Z,10.50
2018-08-03T18:34:40.732Z,8.07
2018-08-03T18:37:11.277Z,10.67
2018-08-03T18:39:41.557Z,8.60
2018-08-03T18:42:11.715Z,8.27
2018-08-03T18:44:43.995Z,9.20
2018-08-03T18:47:15.904Z,8.97
2018-08-03T18:49:46.225Z,8.47
2018-08-03T18:52:16.581Z,9.80
2018-08-03T18:54:49.963Z,10.80
2018-08-03T18:57:20.498Z,8.73
2018-08-03T18:59:51.628Z,9.20
2018-08-03T19:02:23.020Z,9.00
2018-08-03T19:04:53.498Z,9.17
2018-08-03T19:07:23.624Z,12.07
2018-08-03T19:10:00.670Z,9.63
2018-08-03T19:12:30.923Z,9.23
2018-08-03T19:15:01.962Z,8.60
2018-08-03T19:17:32.090Z,11.30
2018-08-03T19:20:02.515Z,8.53
2018-08-03T19:22:32.979Z,9.23
2018-08-03T19:25:03.468Z,10.93
2018-08-03T19:27:33.385Z,10.43
2018-08-03T19:30:03.405Z,10.43
2018-08-03T19:32:34.671Z,10.73
2018-08-03T19:35:04.901Z,11.80
2018-08-03T19:37:35.009Z,11.77
2018-08-03T19:40:05.450Z,12.23
2018-08-03T19:42:35.453Z,12.27
2018-08-03T19:45:05.808Z,9.20
2018-08-03T19:47:36.039Z,8.60
2018-08-03T19:50:06.352Z,10.07
2018-08-03T19:52:36.481Z,9.37
2018-08-03T19:55:06.995Z,9.67
2018-08-03T19:57:38.397Z,9.93
2018-08-03T20:00:10.927Z,9.47
2018-08-03T20:02:41.526Z,12.87
2018-08-03T20:05:11.893Z,9.63
2018-08-03T20:07:42.260Z,9.97
2018-08-03T20:10:12.231Z,9.97
2018-08-03T20:12:42.783Z,10.83
2018-08-03T20:15:13.189Z,11.80
2018-08-03T20:17:43.389Z,9.17
2018-08-03T20:20:13.426Z,9.83
2018-08-03T20:22:43.648Z,11.23
2018-08-03T20:25:16.025Z,12.13
2018-08-03T20:27:45.913Z,9.43
2018-08-03T20:30:16.056Z,9.20
2018-08-03T20:32:45.962Z,9.50
2018-08-03T20:35:16.299Z,9.43
2018-08-03T20:37:46.254Z,10.60
2018-08-03T20:40:16.278Z,10.23
2018-08-03T20:42:46.326Z,9.43
2018-08-03T20:45:16.557Z,9.50
2018-08-03T20:47:46.456Z,10.13
2018-08-03T20:50:16.504Z,11.40
2018-08-03T20:52:46.936Z,15.87
2018-08-03T20:55:17.924Z,11.23
2018-08-03T20:57:49.244Z,11.17
2018-08-03T21:00:20.642Z,9.33
2018-08-03T21:02:52.239Z,10.23
2018-08-03T21:05:22.429Z,11.43
2018-08-03T21:07:52.663Z,10.37
2018-08-03T21:10:27.568Z,11.77
2018-08-03T21:12:57.585Z,11.37
2018-08-03T21:15:27.503Z,10.10
2018-08-03T21:17:58.642Z,11.00
2018-08-03T21:20:28.539Z,9.37
2018-08-03T21:22:58.463Z,10.77
2018-08-03T21:25:28.327Z,10.93
2018-08-03T21:27:58.451Z,12.27
2018-08-03T21:30:28.267Z,11.77
2018-08-03T21:32:58.444Z,10.73
2018-08-03T21:35:28.430Z,12.87
2018-08-03T21:37:59.318Z,11.30
2018-08-03T21:40:30.139Z,10.40
2018-08-03T21:43:00.437Z,11.27
2018-08-03T21:45:35.375Z,10.47
2018-08-03T21:48:05.384Z,11.33
2018-08-03T21:50:35.393Z,11.03
2018-08-03T21:53:06.236Z,10.83
2018-08-03T21:55:36.441Z,9.93
2018-08-03T21:58:06.397Z,11.47
2018-08-03T22:00:36.425Z,11.37
2018-08-03T22:03:07.588Z,11.30
2018-08-03T22:05:37.490Z,12.00
2018-08-03T22:08:08.442Z,14.33
2018-08-03T22:10:39.062Z,12.53
2018-08-03T22:13:09.762Z,12.03
2018-08-03T22:15:41.090Z,12.53
2018-08-03T22:18:13.716Z,10.80
2018-08-03T22:20:44.074Z,11.90
2018-08-03T22:23:14.008Z,10.97
2018-08-03T22:25:44.625Z,11.93
2018-08-03T22:28:20.606Z,11.40
2018-08-03T22:30:51.147Z,11.60
2018-08-03T22:33:21.454Z,11.10
2018-08-03T22:35:51.796Z,12.10
2018-08-03T22:38:21.886Z,12.87
2018-08-03T22:40:52.623Z,11.70
2018-08-03T22:43:23.150Z,10.77
2018-08-03T22:45:53.070Z,11.33
2018-08-03T22:48:24.321Z,11.17
2018-08-03T22:50:54.194Z,11.23
2018-08-03T22:53:24.161Z,11.00
2018-08-03T22:55:54.159Z,11.37
2018-08-03T22:58:24.406Z,11.97
2018-08-03T23:00:56.316Z,12.57
2018-08-03T23:03:26.238Z,11.40
2018-08-03T23:05:56.848Z,11.53
2018-08-03T23:08:26.815Z,11.50
2018-08-03T23:10:56.744Z,15.23
2018-08-03T23:13:28.613Z,11.33
2018-08-03T23:15:58.532Z,12.30
2018-08-03T23:18:28.747Z,10.43
2018-08-03T23:20:58.616Z,11.00
2018-08-03T23:23:28.671Z,12.07
2018-08-03T23:25:58.688Z,10.70
2018-08-03T23:28:29.971Z,12.47
2018-08-03T23:30:59.953Z,11.57
2018-08-03T23:33:29.849Z,13.00
2018-08-03T23:35:59.695Z,13.63
2018-08-03T23:38:29.949Z,12.77
2018-08-03T23:40:59.858Z,11.40
2018-08-03T23:43:29.723Z,11.93
2018-08-03T23:45:59.614Z,12.40
2018-08-03T23:48:37.045Z,11.73
2018-08-03T23:51:06.896Z,11.77
2018-08-03T23:53:37.137Z,11.07
2018-08-03T23:56:07.200Z,11.10
2018-08-03T23:58:39.765Z,12.30
